Time;durP1;ratioP1;P1;durP2;ratioP2;P2;SDS_P1;SDS_P2;PMS_P1;PMS_P2;Temp;Humidity;BMP_temperature;BMP_pressure;BME280_temperature;BME280_humidity;BME280_pressure;Samples;Min_cycle;Max_cycle;Signal;HPM_P1;HPM_P2
2023/03/12 00:02:16;;;;;;;;;;;;;;;;;;4437391;32;19937;-79
2023/03/12 00:04:42;;;;;;;;;;;;;;;;;;4436379;32;19913;-78
2023/03/12 00:07:07;;;;;;;;;;;;;;;;;;4434879;32;19941;-80
2023/03/12 00:09:32;;;;;;;;;;;;;;;;;;4428536;32;19986;-79
2023/03/12 00:11:57;;;;;;;;;;;;;;;;;;4423384;32;19933;-79
2023/03/12 00:14:23;;;;;;;;;;;;;;;;;;4422354;32;19953;-79
2023/03/12 00:16:48;;;;;;;;;;;;;;;;;;4423645;32;19933;-80
2023/03/12 00:19:13;;;;;;;;;;;;;;;;;;4429991;32;19914;-79
2023/03/12 00:21:38;;;;;;;;;;;;;;;;;;4429477;32;19948;-79
2023/03/12 00:24:04;;;;;;;;;;;;;;;;;;4430361;32;19927;-80
2023/03/12 00:26:29;;;;;;;;;;;;;;;;;;4445863;32;19933;-79
2023/03/12 00:28:54;;;;;;;;;;;;;;;;;;4443702;32;19972;-79
2023/03/12 00:31:19;;;;;;;;;;;;;;;;;;4429638;32;19933;-79
2023/03/12 00:33:44;;;;;;;;;;;;;;;;;;4426713;32;19977;-79
2023/03/12 00:36:09;;;;;;;;;;;;;;;;;;4424816;32;19982;-79
2023/03/12 00:38:35;;;;;;;;;;;;;;;;;;4424005;32;19988;-80
2023/03/12 00:41:00;;;;;;;;;;;;;;;;;;4406837;32;19938;-80
2023/03/12 00:43:25;;;;;;;;;;;;;;;;;;4405681;32;19952;-80
2023/03/12 00:48:34;;;;;;;;;;;;;;;;;;4406739;32;19963;-79
2023/03/12 00:50:59;;;;;;;;;;;;;;;;;;4410237;32;19937;-79
2023/03/12 00:53:24;;;;;;;;;;;;;;;;;;4412043;32;19965;-80
2023/03/12 00:55:49;;;;;;;;;;;;;;;;;;4408044;32;19944;-80
2023/03/12 00:58:14;;;;;;;;;;;;;;;;;;4407517;32;19977;-80
2023/03/12 01:00:39;;;;;;;;;;;;;;;;;;4406265;32;19942;-79
2023/03/12 01:03:04;;;;;;;;;;;;;;;;;;4406880;32;20030;-80
2023/03/12 01:05:30;;;;;;;;;;;;;;;;;;4417573;32;20034;-80
2023/03/12 01:07:55;;;;;;;;;;;;;;;;;;4406112;32;19980;-79
2023/03/12 01:10:21;;;;;;;;;;;;;;;;;;4421384;32;19977;-80
2023/03/12 01:12:46;;;;;;;;;;;;;;;;;;4435318;32;19975;-80
2023/03/12 01:15:11;;;;;;;;;;;;;;;;;;4423989;32;19959;-79
2023/03/12 01:17:37;;;;;;;;;;;;;;;;;;4423929;32;19951;-79
2023/03/12 01:20:02;;;;;;;;;;;;;;;;;;4435492;32;19947;-79
2023/03/12 01:22:27;;;;;;;;;;;;;;;;;;4423683;32;19979;-80
2023/03/12 01:24:52;;;;;;;;;;;;;;;;;;4434901;32;20282;-80
2023/03/12 01:27:26;;;;;;;;;;;;;;;;;;4434940;32;20385;-79
2023/03/12 01:35:19;;;;;;;;;;;;;;;;;;4424887;32;20274;-79
2023/03/12 01:40:28;;;;;;;;;;;;;;;;;;4424480;32;19986;-78
2023/03/12 01:42:53;;;;;;;;;;;;;;;;;;4434832;32;19980;-79
2023/03/12 01:45:18;;;;;;;;;;;;;;;;;;4424325;32;19937;-79
2023/03/12 01:47:43;;;;;;;;;;;;;;;;;;4422613;32;19948;-79
2023/03/12 01:50:08;;;;;;;;;;;;;;;;;;4435733;32;19952;-79
2023/03/12 01:52:33;;;;;;;;;;;;;;;;;;4424212;32;19932;-79
2023/03/12 01:54:58;;;;;;;;;;;;;;;;;;4434346;32;19938;-79
2023/03/12 01:57:23;;;;;;;;;;;;;;;;;;4422796;32;20021;-79
2023/03/12 01:59:48;;;;;;;;;;;;;;;;;;4422318;32;20314;-79
2023/03/12 02:02:14;;;;;;;;;;;;;;;;;;4423242;32;20274;-79
2023/03/12 02:04:39;;;;;;;;;;;;;;;;;;4422918;32;19937;-79
2023/03/12 02:07:04;;;;;;;;;;;;;;;;;;4424163;32;20019;-80
2023/03/12 02:09:29;;;;;;;;;;;;;;;;;;4426247;32;19937;-80
2023/03/12 02:11:54;;;;;;;;;;;;;;;;;;4429834;32;20003;-80
2023/03/12 02:14:19;;;;;;;;;;;;;;;;;;4424359;32;19947;-80
2023/03/12 02:16:44;;;;;;;;;;;;;;;;;;4423420;32;19999;-79
2023/03/12 02:19:09;;;;;;;;;;;;;;;;;;4422723;32;20300;-80
2023/03/12 02:21:36;;;;;;;;;;;;;;;;;;4433415;32;19933;-80
2023/03/12 02:24:01;;;;;;;;;;;;;;;;;;4425777;32;19948;-78
2023/03/12 02:26:26;;;;;;;;;;;;;;;;;;4426306;32;19941;-78
2023/03/12 02:28:51;;;;;;;;;;;;;;;;;;4437260;32;19967;-78
2023/03/12 02:31:16;;;;;;;;;;;;;;;;;;4423008;32;19941;-79
2023/03/12 02:33:42;;;;;;;;;;;;;;;;;;4422241;32;19937;-79
2023/03/12 02:36:08;;;;;;;;;;;;;;;;;;4423239;32;19941;-79
2023/03/12 02:38:33;;;;;;;;;;;;;;;;;;4433699;32;19944;-79
2023/03/12 02:40:58;;;;;;;;;;;;;;;;;;4434292;32;19964;-79
2023/03/12 02:43:23;;;;;;;;;;;;;;;;;;4422305;32;19974;-79
2023/03/12 02:45:48;;;;;;;;;;;;;;;;;;4434052;32;19937;-78
2023/03/12 02:48:13;;;;;;;;;;;;;;;;;;4433434;32;19936;-79
2023/03/12 02:50:38;;;;;;;;;;;;;;;;;;4421788;32;19937;-79
2023/03/12 02:53:03;;;;;;;;;;;;;;;;;;4434064;32;19937;-79
2023/03/12 02:55:28;;;;;;;;;;;;;;;;;;4425953;32;19941;-79
2023/03/12 02:57:53;;;;;;;;;;;;;;;;;;4423177;32;20118;-79
2023/03/12 03:00:18;;;;;;;;;;;;;;;;;;4422037;32;20307;-79
2023/03/12 03:02:44;;;;;;;;;;;;;;;;;;4422922;32;20376;-79
2023/03/12 03:05:09;;;;;;;;;;;;;;;;;;4424248;32;19933;-79
2023/03/12 03:07:34;;;;;;;;;;;;;;;;;;4428189;32;19925;-77
2023/03/12 03:10:02;;;;;;;;;;;;;;;;;;4433405;32;20327;-78
2023/03/12 03:12:28;;;;;;;;;;;;;;;;;;4436423;32;19959;-78
2023/03/12 03:14:53;;;;;;;;;;;;;;;;;;4421570;32;19940;-78
2023/03/12 03:17:18;;;;;;;;;;;;;;;;;;4421639;32;20337;-78
2023/03/12 03:19:43;;;;;;;;;;;;;;;;;;4421347;32;19987;-80
2023/03/12 03:22:08;;;;;;;;;;;;;;;;;;4422023;32;19945;-79
2023/03/12 03:24:35;;;;;;;;;;;;;;;;;;4422410;32;19979;-79
2023/03/12 03:27:00;;;;;;;;;;;;;;;;;;4421743;32;19982;-78
2023/03/12 03:29:25;;;;;;;;;;;;;;;;;;4421349;32;20356;-78
2023/03/12 03:31:50;;;;;;;;;;;;;;;;;;4432519;32;19937;-77
2023/03/12 03:34:15;;;;;;;;;;;;;;;;;;4422173;32;19943;-79
2023/03/12 03:36:40;;;;;;;;;;;;;;;;;;4422797;32;19980;-78
2023/03/12 03:39:05;;;;;;;;;;;;;;;;;;4421959;32;19936;-78
2023/03/12 03:41:31;;;;;;;;;;;;;;;;;;4421811;32;19968;-79
2023/03/12 03:43:57;;;;;;;;;;;;;;;;;;4421104;32;19941;-79
2023/03/12 03:46:22;;;;;;;;;;;;;;;;;;4434635;32;19964;-78
2023/03/12 03:48:49;;;;;;;;;;;;;;;;;;4433035;32;19971;-78
2023/03/12 03:51:14;;;;;;;;;;;;;;;;;;4432960;32;20305;-80
2023/03/12 03:53:40;;;;;;;;;;;;;;;;;;4422389;32;20239;-79
2023/03/12 04:01:33;;;;;;;;;;;;;;;;;;4421717;32;19932;-79
2023/03/12 04:03:58;;;;;;;;;;;;;;;;;;4421446;32;19953;-80
2023/03/12 04:06:23;;;;;;;;;;;;;;;;;;4421510;32;19988;-80
2023/03/12 04:08:48;;;;;;;;;;;;;;;;;;4432668;32;19953;-80
2023/03/12 04:11:13;;;;;;;;;;;;;;;;;;4422520;32;19944;-80
2023/03/12 04:13:38;;;;;;;;;;;;;;;;;;4436858;32;19938;-80
2023/03/12 04:16:03;;;;;;;;;;;;;;;;;;4431351;32;20267;-79
2023/03/12 04:18:29;;;;;;;;;;;;;;;;;;4439908;32;19929;-79
2023/03/12 04:20:54;;;;;;;;;;;;;;;;;;4422719;32;20381;-79
2023/03/12 04:23:19;;;;;;;;;;;;;;;;;;4433849;32;19940;-79
2023/03/12 04:25:44;;;;;;;;;;;;;;;;;;4423168;32;19933;-81
2023/03/12 04:28:09;;;;;;;;;;;;;;;;;;4432752;32;19988;-79
2023/03/12 04:30:48;;;;;;;;;;;;;;;;;;4421442;32;19972;-79
2023/03/12 04:33:13;;;;;;;;;;;;;;;;;;4433762;32;19930;-79
2023/03/12 04:35:38;;;;;;;;;;;;;;;;;;4433907;32;19953;-79
2023/03/12 04:38:03;;;;;;;;;;;;;;;;;;4435797;32;19980;-79
2023/03/12 04:40:28;;;;;;;;;;;;;;;;;;4430120;32;19940;-79
2023/03/12 04:42:54;;;;;;;;;;;;;;;;;;4434616;32;20114;-79
2023/03/12 04:45:19;;;;;;;;;;;;;;;;;;4435551;32;19937;-79
2023/03/12 04:47:44;;;;;;;;;;;;;;;;;;4435600;32;19969;-79
2023/03/12 04:50:09;;;;;;;;;;;;;;;;;;4435720;32;19952;-79
2023/03/12 04:52:34;;;;;;;;;;;;;;;;;;4424931;32;19973;-79
2023/03/12 04:54:59;;;;;;;;;;;;;;;;;;4424448;32;19981;-79
2023/03/12 04:57:24;;;;;;;;;;;;;;;;;;4435976;32;20290;-79
2023/03/12 04:59:50;;;;;;;;;;;;;;;;;;4424083;32;19937;-79
2023/03/12 05:02:15;;;;;;;;;;;;;;;;;;4424052;32;19967;-79
2023/03/12 05:04:40;;;;;;;;;;;;;;;;;;4435526;32;19956;-79
2023/03/12 05:07:05;;;;;;;;;;;;;;;;;;4423953;32;19951;-78
2023/03/12 05:09:30;;;;;;;;;;;;;;;;;;4435211;32;19941;-79
2023/03/12 05:11:55;;;;;;;;;;;;;;;;;;4435305;32;19972;-78
2023/03/12 05:14:20;;;;;;;;;;;;;;;;;;4435503;32;19941;-79
2023/03/12 05:16:45;;;;;;;;;;;;;;;;;;4427551;32;19952;-79
2023/03/12 05:19:10;;;;;;;;;;;;;;;;;;4447477;32;19956;-79
2023/03/12 05:21:36;;;;;;;;;;;;;;;;;;4447849;32;19948;-80
2023/03/12 05:24:01;;;;;;;;;;;;;;;;;;4434948;32;19974;-78
2023/03/12 05:26:26;;;;;;;;;;;;;;;;;;4434170;32;19949;-79
2023/03/12 05:28:51;;;;;;;;;;;;;;;;;;4434286;32;19949;-78
2023/03/12 05:31:16;;;;;;;;;;;;;;;;;;4431820;32;19952;-79
2023/03/12 05:33:42;;;;;;;;;;;;;;;;;;4433483;32;19918;-79
2023/03/12 05:36:07;;;;;;;;;;;;;;;;;;4435694;32;19922;-78
2023/03/12 05:38:32;;;;;;;;;;;;;;;;;;4434034;32;19941;-80
2023/03/12 05:40:58;;;;;;;;;;;;;;;;;;4433316;32;19933;-80
2023/03/12 05:43:23;;;;;;;;;;;;;;;;;;4433013;32;19951;-79
2023/03/12 05:45:48;;;;;;;;;;;;;;;;;;4431629;32;19941;-80
2023/03/12 05:48:13;;;;;;;;;;;;;;;;;;4426704;32;19957;-81
2023/03/12 05:50:38;;;;;;;;;;;;;;;;;;4430440;32;19933;-78
2023/03/12 05:53:03;;;;;;;;;;;;;;;;;;4442931;32;19937;-79
2023/03/12 05:55:28;;;;;;;;;;;;;;;;;;4426934;32;19933;-79
2023/03/12 05:57:53;;;;;;;;;;;;;;;;;;4426834;32;19967;-80
2023/03/12 06:00:18;;;;;;;;;;;;;;;;;;4423604;32;20057;-80
2023/03/12 06:02:44;;;;;;;;;;;;;;;;;;4423448;32;19937;-80
2023/03/12 06:05:09;;;;;;;;;;;;;;;;;;4423035;32;19932;-80
2023/03/12 06:07:34;;;;;;;;;;;;;;;;;;4434822;32;19968;-80
2023/03/12 06:09:59;;;;;;;;;;;;;;;;;;4424749;32;19951;-79
2023/03/12 06:12:24;;;;;;;;;;;;;;;;;;4434767;32;20299;-80
2023/03/12 06:14:49;;;;;;;;;;;;;;;;;;4435018;32;19996;-80
2023/03/12 06:17:14;;;;;;;;;;;;;;;;;;4434921;32;20320;-79
2023/03/12 06:19:39;;;;;;;;;;;;;;;;;;4423187;32;19956;-79
2023/03/12 06:22:04;;;;;;;;;;;;;;;;;;4433033;32;19983;-80
2023/03/12 06:24:29;;;;;;;;;;;;;;;;;;4451646;32;19945;-80
2023/03/12 06:26:55;;;;;;;;;;;;;;;;;;4445689;32;19976;-79
2023/03/12 06:29:20;;;;;;;;;;;;;;;;;;4423685;32;20240;-79
2023/03/12 06:31:46;;;;;;;;;;;;;;;;;;4423501;32;19933;-79
2023/03/12 06:34:12;;;;;;;;;;;;;;;;;;4434999;32;19959;-80
2023/03/12 06:36:37;;;;;;;;;;;;;;;;;;4434479;32;20319;-80
2023/03/12 06:39:05;;;;;;;;;;;;;;;;;;4434606;32;19940;-80
2023/03/12 06:41:30;;;;;;;;;;;;;;;;;;4434644;32;19939;-81
2023/03/12 06:43:55;;;;;;;;;;;;;;;;;;4435680;32;19949;-80
2023/03/12 06:46:20;;;;;;;;;;;;;;;;;;4434226;32;19937;-80
2023/03/12 06:48:45;;;;;;;;;;;;;;;;;;4436388;32;20235;-81
2023/03/12 06:51:10;;;;;;;;;;;;;;;;;;4430733;32;19933;-81
2023/03/12 06:53:35;;;;;;;;;;;;;;;;;;4429932;32;19951;-81
2023/03/12 06:56:01;;;;;;;;;;;;;;;;;;4433318;32;19989;-81
2023/03/12 06:58:26;;;;;;;;;;;;;;;;;;4423917;32;20382;-81
2023/03/12 07:00:51;;;;;;;;;;;;;;;;;;4423391;32;20256;-81
2023/03/12 07:03:16;;;;;;;;;;;;;;;;;;4424004;32;19967;-81
2023/03/12 07:05:41;;;;;;;;;;;;;;;;;;4434504;32;20323;-81
2023/03/12 07:08:06;;;;;;;;;;;;;;;;;;4433942;32;20026;-81
2023/03/12 07:10:31;;;;;;;;;;;;;;;;;;4423324;32;19945;-81
2023/03/12 07:12:56;;;;;;;;;;;;;;;;;;4433291;32;19937;-81
2023/03/12 07:15:21;;;;;;;;;;;;;;;;;;4433169;32;19939;-81
2023/03/12 07:17:47;;;;;;;;;;;;;;;;;;4421428;32;19933;-81
2023/03/12 07:20:12;;;;;;;;;;;;;;;;;;4433060;32;19952;-81
2023/03/12 07:22:37;;;;;;;;;;;;;;;;;;4421893;32;20371;-81
2023/03/12 07:25:02;;;;;;;;;;;;;;;;;;4432937;32;19937;-81
2023/03/12 07:27:27;;;;;;;;;;;;;;;;;;4433164;32;19945;-81
2023/03/12 07:29:52;;;;;;;;;;;;;;;;;;4434727;32;19980;-80
2023/03/12 07:32:17;;;;;;;;;;;;;;;;;;4433199;32;19981;-80
2023/03/12 07:34:42;;;;;;;;;;;;;;;;;;4433046;32;19970;-80
2023/03/12 07:39:53;;;;;;;;;;;;;;;;;;4422450;32;19963;-83
2023/03/12 07:42:18;;;;;;;;;;;;;;;;;;4436681;32;19991;-82
2023/03/12 07:44:43;;;;;;;;;;;;;;;;;;4426578;32;19985;-82
2023/03/12 07:47:08;;;;;;;;;;;;;;;;;;4426566;32;19947;-83
2023/03/12 07:49:33;;;;;;;;;;;;;;;;;;4438812;32;20006;-82
2023/03/12 07:51:59;;;;;;;;;;;;;;;;;;4439732;32;19933;-83
2023/03/12 07:54:29;;;;;;;;;;;;;;;;;;4438334;32;19994;-82
2023/03/12 07:56:54;;;;;;;;;;;;;;;;;;4422326;32;20006;-82
2023/03/12 07:59:21;;;;;;;;;;;;;;;;;;4421943;32;19942;-82
2023/03/12 08:01:46;;;;;;;;;;;;;;;;;;4406498;32;20284;-82
2023/03/12 08:04:11;;;;;;;;;;;;;;;;;;4406852;32;20288;-82
2023/03/12 08:06:37;;;;;;;;;;;;;;;;;;4406089;32;20346;-81
2023/03/12 08:09:02;;;;;;;;;;;;;;;;;;4417156;32;19938;-82
2023/03/12 08:11:29;;;;;;;;;;;;;;;;;;4406112;32;19957;-82
2023/03/12 08:13:54;;;;;;;;;;;;;;;;;;4405924;32;20171;-82
2023/03/12 08:16:19;;;;;;;;;;;;;;;;;;4417822;32;19993;-81
2023/03/12 08:18:44;;;;;;;;;;;;;;;;;;4418417;32;19980;-81
2023/03/12 08:21:09;;;;;;;;;;;;;;;;;;4409557;32;20323;-82
2023/03/12 08:23:34;;;;;;;;;;;;;;;;;;4421485;32;19937;-81
2023/03/12 08:25:59;;;;;;;;;;;;;;;;;;4409385;32;19953;-83
2023/03/12 08:28:24;;;;;;;;;;;;;;;;;;4427191;32;20393;-83
2023/03/12 08:30:49;;;;;;;;;;;;;;;;;;4425285;32;19989;-83
2023/03/12 08:33:15;;;;;;;;;;;;;;;;;;4438020;32;19981;-83
2023/03/12 08:35:40;;;;;;;;;;;;;;;;;;4436106;32;19937;-84
2023/03/12 08:38:05;;;;;;;;;;;;;;;;;;4421351;32;19933;-84
2023/03/12 08:40:30;;;;;;;;;;;;;;;;;;4415783;32;19968;-85
2023/03/12 08:42:55;;;;;;;;;;;;;;;;;;4424849;32;19957;-84
2023/03/12 08:45:20;;;;;;;;;;;;;;;;;;4424626;32;19947;-85
2023/03/12 08:47:45;;;;;;;;;;;;;;;;;;4424649;32;19953;-84
2023/03/12 08:50:10;;;;;;;;;;;;;;;;;;4424286;32;20340;-83
2023/03/12 08:52:35;;;;;;;;;;;;;;;;;;4424683;32;19952;-82
2023/03/12 08:55:01;;;;;;;;;;;;;;;;;;4423120;32;19936;-81
2023/03/12 08:57:26;;;;;;;;;;;;;;;;;;4423679;32;19972;-81
2023/03/12 08:59:51;;;;;;;;;;;;;;;;;;4423913;32;19937;-81
2023/03/12 09:02:16;;;;;;;;;;;;;;;;;;4424639;32;19941;-80
2023/03/12 09:04:41;;;;;;;;;;;;;;;;;;4424703;32;19944;-80
2023/03/12 09:07:06;;;;;;;;;;;;;;;;;;4427509;32;19996;-79
2023/03/12 09:09:31;;;;;;;;;;;;;;;;;;4425524;32;19932;-80
2023/03/12 09:11:56;;;;;;;;;;;;;;;;;;4430490;32;19977;-80
2023/03/12 09:14:21;;;;;;;;;;;;;;;;;;4423759;32;20345;-80
2023/03/12 09:16:46;;;;;;;;;;;;;;;;;;4423888;32;20005;-79
2023/03/12 09:21:56;;;;;;;;;;;;;;;;;;4424797;32;20364;-80
2023/03/12 09:24:21;;;;;;;;;;;;;;;;;;4423701;32;19945;-80
2023/03/12 09:26:46;;;;;;;;;;;;;;;;;;4421832;32;19942;-79
2023/03/12 09:29:11;;;;;;;;;;;;;;;;;;4421306;32;20359;-80
2023/03/12 09:31:37;;;;;;;;;;;;;;;;;;4422624;32;19973;-78
2023/03/12 09:34:02;;;;;;;;;;;;;;;;;;4421781;32;19941;-78
2023/03/12 09:36:27;;;;;;;;;;;;;;;;;;4423542;32;20314;-78
2023/03/12 09:38:52;;;;;;;;;;;;;;;;;;4422802;32;20315;-77
2023/03/12 09:41:17;;;;;;;;;;;;;;;;;;4422761;32;19974;-78
2023/03/12 09:43:42;;;;;;;;;;;;;;;;;;4423814;32;19933;-78
2023/03/12 09:46:07;;;;;;;;;;;;;;;;;;4421489;32;19960;-78
2023/03/12 09:48:35;;;;;;;;;;;;;;;;;;4423733;32;19952;-78
2023/03/12 09:51:00;;;;;;;;;;;;;;;;;;4423101;32;20363;-77
2023/03/12 09:53:26;;;;;;;;;;;;;;;;;;4422160;32;20350;-77
2023/03/12 09:55:51;;;;;;;;;;;;;;;;;;4422001;32;19949;-77
2023/03/12 09:58:16;;;;;;;;;;;;;;;;;;4422354;32;19961;-78
2023/03/12 10:00:41;;;;;;;;;;;;;;;;;;4422415;32;19951;-79
2023/03/12 10:03:06;;;;;;;;;;;;;;;;;;4422594;32;19941;-79
2023/03/12 10:05:32;;;;;;;;;;;;;;;;;;4423007;32;20364;-79
2023/03/12 10:07:57;;;;;;;;;;;;;;;;;;4422554;32;20368;-79
2023/03/12 10:10:22;;;;;;;;;;;;;;;;;;4421055;32;19977;-79
2023/03/12 10:12:47;;;;;;;;;;;;;;;;;;4421245;32;19937;-81
2023/03/12 10:15:12;;;;;;;;;;;;;;;;;;4423759;32;19933;-80
2023/03/12 10:17:37;;;;;;;;;;;;;;;;;;4422601;32;19937;-79
2023/03/12 10:20:04;;;;;;;;;;;;;;;;;;4421028;32;19945;-78
2023/03/12 10:22:30;;;;;;;;;;;;;;;;;;4422275;32;19941;-79
2023/03/12 10:24:55;;;;;;;;;;;;;;;;;;4421836;32;20006;-79
2023/03/12 10:27:20;;;;;;;;;;;;;;;;;;4423694;32;19934;-80
2023/03/12 10:29:45;;;;;;;;;;;;;;;;;;4423303;32;19995;-79
2023/03/12 10:32:10;;;;;;;;;;;;;;;;;;4421188;32;19945;-80
2023/03/12 10:34:36;;;;;;;;;;;;;;;;;;4422786;32;19948;-80
2023/03/12 10:37:01;;;;;;;;;;;;;;;;;;4430166;32;19944;-80
2023/03/12 10:39:26;;;;;;;;;;;;;;;;;;4436963;32;19943;-81
2023/03/12 10:41:52;;;;;;;;;;;;;;;;;;4436204;32;19989;-83
2023/03/12 10:44:17;;;;;;;;;;;;;;;;;;4424350;32;20326;-83
2023/03/12 10:46:42;;;;;;;;;;;;;;;;;;4423836;32;19989;-83
2023/03/12 10:49:07;;;;;;;;;;;;;;;;;;4423103;32;19941;-83
2023/03/12 10:51:32;;;;;;;;;;;;;;;;;;4423186;32;19981;-82
2023/03/12 10:53:57;;;;;;;;;;;;;;;;;;4422402;32;19966;-82
2023/03/12 10:56:22;;;;;;;;;;;;;;;;;;4423509;32;19938;-83
2023/03/12 10:58:47;;;;;;;;;;;;;;;;;;4423931;32;19974;-83
2023/03/12 11:01:12;;;;;;;;;;;;;;;;;;4425638;32;20326;-83
2023/03/12 11:03:37;;;;;;;;;;;;;;;;;;4428716;32;19933;-83
2023/03/12 11:06:03;;;;;;;;;;;;;;;;;;4424964;32;19933;-82
2023/03/12 11:08:28;;;;;;;;;;;;;;;;;;4423948;32;19974;-84
2023/03/12 11:10:54;;;;;;;;;;;;;;;;;;4423231;32;20216;-84
2023/03/12 11:13:19;;;;;;;;;;;;;;;;;;4426832;32;19958;-85
2023/03/12 11:15:44;;;;;;;;;;;;;;;;;;4426260;32;19929;-82
2023/03/12 11:18:11;;;;;;;;;;;;;;;;;;4423570;32;19937;-79
2023/03/12 11:20:36;;;;;;;;;;;;;;;;;;4425037;32;19992;-79
2023/03/12 11:23:01;;;;;;;;;;;;;;;;;;4430181;32;19938;-77
2023/03/12 11:25:26;;;;;;;;;;;;;;;;;;4431197;32;19936;-79
2023/03/12 11:27:51;;;;;;;;;;;;;;;;;;4432720;32;20286;-79
2023/03/12 11:30:16;;;;;;;;;;;;;;;;;;4430761;32;20316;-79
2023/03/12 11:32:41;;;;;;;;;;;;;;;;;;4427336;32;19951;-78
2023/03/12 11:35:06;;;;;;;;;;;;;;;;;;4424001;32;19968;-77
2023/03/12 11:37:31;;;;;;;;;;;;;;;;;;4421248;32;19945;-78
2023/03/12 11:39:57;;;;;;;;;;;;;;;;;;4421756;32;20281;-79
2023/03/12 11:42:22;;;;;;;;;;;;;;;;;;4422379;32;19993;-78
2023/03/12 11:44:47;;;;;;;;;;;;;;;;;;4420810;32;20282;-80
2023/03/12 11:47:12;;;;;;;;;;;;;;;;;;4421711;32;19945;-81
2023/03/12 11:49:37;;;;;;;;;;;;;;;;;;4423624;32;20281;-81
2023/03/12 11:52:02;;;;;;;;;;;;;;;;;;4423437;32;19944;-81
2023/03/12 11:54:27;;;;;;;;;;;;;;;;;;4420421;32;19941;-82
2023/03/12 11:56:52;;;;;;;;;;;;;;;;;;4420262;32;20323;-80
2023/03/12 11:59:17;;;;;;;;;;;;;;;;;;4422737;32;20290;-83
2023/03/12 12:01:43;;;;;;;;;;;;;;;;;;4421639;32;20349;-80
2023/03/12 12:04:08;;;;;;;;;;;;;;;;;;4420993;32;19948;-81
2023/03/12 12:06:33;;;;;;;;;;;;;;;;;;4422542;32;19941;-81
2023/03/12 12:08:58;;;;;;;;;;;;;;;;;;4421677;32;20307;-82
2023/03/12 12:11:24;;;;;;;;;;;;;;;;;;4420606;32;19984;-81
2023/03/12 12:13:49;;;;;;;;;;;;;;;;;;4422224;32;19933;-83
2023/03/12 12:16:14;;;;;;;;;;;;;;;;;;4420734;32;20021;-82
2023/03/12 12:18:39;;;;;;;;;;;;;;;;;;4421421;32;19937;-82
2023/03/12 12:21:06;;;;;;;;;;;;;;;;;;4420338;32;20090;-79
2023/03/12 12:23:32;;;;;;;;;;;;;;;;;;4421492;32;19964;-83
2023/03/12 12:25:57;;;;;;;;;;;;;;;;;;4421967;32;19941;-83
2023/03/12 12:28:22;;;;;;;;;;;;;;;;;;4421183;32;19971;-82
2023/03/12 12:30:47;;;;;;;;;;;;;;;;;;4422416;32;20025;-83
2023/03/12 12:33:13;;;;;;;;;;;;;;;;;;4420376;32;19990;-83
2023/03/12 12:35:39;;;;;;;;;;;;;;;;;;4420963;32;19940;-81
2023/03/12 12:38:04;;;;;;;;;;;;;;;;;;4421840;32;19979;-80
2023/03/12 12:40:29;;;;;;;;;;;;;;;;;;4421040;32;20299;-80
2023/03/12 12:42:54;;;;;;;;;;;;;;;;;;4428250;32;19983;-79
2023/03/12 12:45:19;;;;;;;;;;;;;;;;;;4430996;32;19952;-80
2023/03/12 12:47:45;;;;;;;;;;;;;;;;;;4429664;32;19956;-79
2023/03/12 12:50:10;;;;;;;;;;;;;;;;;;4434689;32;19922;-80
2023/03/12 12:52:35;;;;;;;;;;;;;;;;;;4429469;32;19959;-80
2023/03/12 12:55:00;;;;;;;;;;;;;;;;;;4421082;32;19937;-79
2023/03/12 12:57:27;;;;;;;;;;;;;;;;;;4422073;32;19985;-79
2023/03/12 12:59:52;;;;;;;;;;;;;;;;;;4420951;32;19936;-80
2023/03/12 13:02:17;;;;;;;;;;;;;;;;;;4420733;32;19971;-78
2023/03/12 13:07:26;;;;;;;;;;;;;;;;;;4429768;32;20007;-78
2023/03/12 13:09:51;;;;;;;;;;;;;;;;;;4428060;32;19933;-80
2023/03/12 13:12:16;;;;;;;;;;;;;;;;;;4423912;32;19997;-80
2023/03/12 13:14:42;;;;;;;;;;;;;;;;;;4422375;32;20266;-80
2023/03/12 13:17:07;;;;;;;;;;;;;;;;;;4424981;32;19941;-80
2023/03/12 13:19:32;;;;;;;;;;;;;;;;;;4424019;32;20424;-80
2023/03/12 13:21:57;;;;;;;;;;;;;;;;;;4423914;32;19942;-81
2023/03/12 13:24:22;;;;;;;;;;;;;;;;;;4425400;32;19947;-81
2023/03/12 13:26:48;;;;;;;;;;;;;;;;;;4422556;32;19996;-80
2023/03/12 13:29:13;;;;;;;;;;;;;;;;;;4423525;32;20242;-81
2023/03/12 13:31:38;;;;;;;;;;;;;;;;;;4423290;32;20244;-80
2023/03/12 13:34:03;;;;;;;;;;;;;;;;;;4423210;32;20303;-81
2023/03/12 13:36:29;;;;;;;;;;;;;;;;;;4423483;32;19947;-81
2023/03/12 13:38:54;;;;;;;;;;;;;;;;;;4424477;32;20027;-79
2023/03/12 13:41:19;;;;;;;;;;;;;;;;;;4422838;32;19933;-80
2023/03/12 13:43:44;;;;;;;;;;;;;;;;;;4434835;32;19938;-80
2023/03/12 13:46:10;;;;;;;;;;;;;;;;;;4436610;32;19937;-81
2023/03/12 13:48:35;;;;;;;;;;;;;;;;;;4435679;32;19999;-81
2023/03/12 13:51:00;;;;;;;;;;;;;;;;;;4423841;32;19941;-80
2023/03/12 13:53:25;;;;;;;;;;;;;;;;;;4427113;32;20005;-78
2023/03/12 13:56:04;;;;;;;;;;;;;;;;;;4442322;32;20247;-80
2023/03/12 13:58:29;;;;;;;;;;;;;;;;;;4435852;32;20006;-79
2023/03/12 14:00:55;;;;;;;;;;;;;;;;;;4425123;32;19973;-78
2023/03/12 14:03:20;;;;;;;;;;;;;;;;;;4426823;32;20321;-79
2023/03/12 14:05:45;;;;;;;;;;;;;;;;;;4424314;32;19987;-80
2023/03/12 14:08:10;;;;;;;;;;;;;;;;;;4437151;32;19973;-80
2023/03/12 14:10:35;;;;;;;;;;;;;;;;;;4426948;32;19973;-79
2023/03/12 14:13:00;;;;;;;;;;;;;;;;;;4424933;32;19933;-79
2023/03/12 14:15:25;;;;;;;;;;;;;;;;;;4435440;32;19937;-79
2023/03/12 14:17:51;;;;;;;;;;;;;;;;;;4423278;32;19949;-81
2023/03/12 14:20:16;;;;;;;;;;;;;;;;;;4436310;32;19937;-83
2023/03/12 14:22:41;;;;;;;;;;;;;;;;;;4435163;32;19937;-83
2023/03/12 14:25:06;;;;;;;;;;;;;;;;;;4434155;32;19933;-81
2023/03/12 14:27:31;;;;;;;;;;;;;;;;;;4422135;32;20363;-78
2023/03/12 14:29:57;;;;;;;;;;;;;;;;;;4434355;32;19962;-78
2023/03/12 14:32:22;;;;;;;;;;;;;;;;;;4422440;32;20319;-75
2023/03/12 14:34:47;;;;;;;;;;;;;;;;;;4423716;32;19945;-77
2023/03/12 14:37:13;;;;;;;;;;;;;;;;;;4435391;32;19937;-77
2023/03/12 14:39:38;;;;;;;;;;;;;;;;;;4433490;32;19967;-78
2023/03/12 14:42:04;;;;;;;;;;;;;;;;;;4422748;32;19941;-77
2023/03/12 14:44:29;;;;;;;;;;;;;;;;;;4426003;32;19945;-78
2023/03/12 14:46:54;;;;;;;;;;;;;;;;;;4422206;32;19972;-77
2023/03/12 14:49:19;;;;;;;;;;;;;;;;;;4434475;32;19975;-77
2023/03/12 14:51:44;;;;;;;;;;;;;;;;;;4425841;32;19957;-78
2023/03/12 14:54:09;;;;;;;;;;;;;;;;;;4418925;32;19953;-78
2023/03/12 14:56:35;;;;;;;;;;;;;;;;;;4444617;32;19979;-78
2023/03/12 14:59:00;;;;;;;;;;;;;;;;;;4441814;32;19950;-77
2023/03/12 15:01:25;;;;;;;;;;;;;;;;;;4438910;32;20329;-79
2023/03/12 15:03:50;;;;;;;;;;;;;;;;;;4438222;32;19951;-78
2023/03/12 15:06:15;;;;;;;;;;;;;;;;;;4413617;32;19968;-77
2023/03/12 15:08:41;;;;;;;;;;;;;;;;;;4412562;32;19934;-78
2023/03/12 15:11:06;;;;;;;;;;;;;;;;;;4408290;32;19941;-78
2023/03/12 15:13:31;;;;;;;;;;;;;;;;;;4406278;32;19994;-78
2023/03/12 15:15:56;;;;;;;;;;;;;;;;;;4408838;32;20301;-79
2023/03/12 15:18:21;;;;;;;;;;;;;;;;;;4420311;32;19947;-79
2023/03/12 15:20:46;;;;;;;;;;;;;;;;;;4421464;32;19941;-77
2023/03/12 15:23:12;;;;;;;;;;;;;;;;;;4422164;32;19971;-77
2023/03/12 15:25:37;;;;;;;;;;;;;;;;;;4422042;32;20267;-79
2023/03/12 15:28:02;;;;;;;;;;;;;;;;;;4421315;32;20359;-77
2023/03/12 15:30:27;;;;;;;;;;;;;;;;;;4421202;32;19933;-77
2023/03/12 15:32:52;;;;;;;;;;;;;;;;;;4421865;32;19972;-78
2023/03/12 15:35:17;;;;;;;;;;;;;;;;;;4421369;32;20282;-78
2023/03/12 15:37:43;;;;;;;;;;;;;;;;;;4419728;32;19937;-77
2023/03/12 15:40:08;;;;;;;;;;;;;;;;;;4419781;32;19941;-78
2023/03/12 15:42:33;;;;;;;;;;;;;;;;;;4420928;32;19941;-78
2023/03/12 15:44:58;;;;;;;;;;;;;;;;;;4421504;32;20071;-78
2023/03/12 15:47:23;;;;;;;;;;;;;;;;;;4421178;32;19933;-78
2023/03/12 15:49:48;;;;;;;;;;;;;;;;;;4420949;32;19968;-77
2023/03/12 15:52:13;;;;;;;;;;;;;;;;;;4421022;32;20048;-78
2023/03/12 15:54:39;;;;;;;;;;;;;;;;;;4421014;32;20315;-78
2023/03/12 15:57:04;;;;;;;;;;;;;;;;;;4419676;32;19964;-77
2023/03/12 15:59:29;;;;;;;;;;;;;;;;;;4419827;32;19996;-77
2023/03/12 16:01:55;;;;;;;;;;;;;;;;;;4420556;32;19984;-78
2023/03/12 16:04:20;;;;;;;;;;;;;;;;;;4422088;32;20271;-78
2023/03/12 16:06:47;;;;;;;;;;;;;;;;;;4421142;32;20358;-78
2023/03/12 16:09:12;;;;;;;;;;;;;;;;;;4421570;32;19971;-79
2023/03/12 16:11:37;;;;;;;;;;;;;;;;;;4419674;32;19941;-80
2023/03/12 16:14:04;;;;;;;;;;;;;;;;;;4421234;32;19976;-78
2023/03/12 16:19:34;;;;;;;;;;;;;;;;;;4419719;32;20345;-78
2023/03/12 16:24:45;;;;;;;;;;;;;;;;;;4423092;32;19944;-78
2023/03/12 16:27:10;;;;;;;;;;;;;;;;;;4425642;32;20341;-78
2023/03/12 16:29:35;;;;;;;;;;;;;;;;;;4421595;32;20319;-78
2023/03/12 16:32:00;;;;;;;;;;;;;;;;;;4421529;32;19952;-77
2023/03/12 16:34:25;;;;;;;;;;;;;;;;;;4421178;32;19959;-77
2023/03/12 16:36:51;;;;;;;;;;;;;;;;;;4421776;32;19952;-78
2023/03/12 16:39:16;;;;;;;;;;;;;;;;;;4422406;32;19956;-79
2023/03/12 16:41:41;;;;;;;;;;;;;;;;;;4423172;32;19937;-79
2023/03/12 16:44:06;;;;;;;;;;;;;;;;;;4424591;32;19937;-79
2023/03/12 16:46:31;;;;;;;;;;;;;;;;;;4423090;32;19948;-79
2023/03/12 16:48:56;;;;;;;;;;;;;;;;;;4423414;32;19953;-78
2023/03/12 16:51:21;;;;;;;;;;;;;;;;;;4425997;32;19956;-79
2023/03/12 16:53:46;;;;;;;;;;;;;;;;;;4431194;32;20349;-78
2023/03/12 16:56:11;;;;;;;;;;;;;;;;;;4434392;32;19933;-77
2023/03/12 16:58:36;;;;;;;;;;;;;;;;;;4435813;32;19935;-79
2023/03/12 17:01:02;;;;;;;;;;;;;;;;;;4434017;32;19937;-76
2023/03/12 17:03:27;;;;;;;;;;;;;;;;;;4436220;32;19937;-76